createdAt,value
2022-11-13T00:00:36.860Z,1016.97
2022-11-13T00:01:36.837Z,1016.91
2022-11-13T00:02:36.909Z,1016.94
2022-11-13T00:03:36.832Z,1016.92
2022-11-13T00:04:36.845Z,1016.91
2022-11-13T00:05:36.799Z,1016.91
2022-11-13T00:06:37.530Z,1016.93
2022-11-13T00:07:36.776Z,1016.89
2022-11-13T00:08:36.780Z,1016.87
2022-11-13T00:09:36.787Z,1016.84
2022-11-13T00:10:36.853Z,1016.93
2022-11-13T00:11:36.765Z,1016.85
2022-11-13T00:12:36.748Z,1016.86
2022-11-13T00:13:36.712Z,1016.88
2022-11-13T00:14:36.762Z,1016.85
2022-11-13T00:15:36.689Z,1016.83
2022-11-13T00:16:36.723Z,1016.80
2022-11-13T00:17:36.670Z,1016.81
2022-11-13T00:18:36.670Z,1016.84
2022-11-13T00:19:36.646Z,1016.82
2022-11-13T00:20:36.680Z,1016.76
2022-11-13T00:21:36.703Z,1016.78
2022-11-13T00:22:36.610Z,1016.77
2022-11-13T00:23:36.626Z,1016.68
2022-11-13T00:24:36.628Z,1016.69
2022-11-13T00:25:36.587Z,1016.68
2022-11-13T00:26:36.715Z,1016.75
2022-11-13T00:27:36.560Z,1016.71
2022-11-13T00:28:36.607Z,1016.71
2022-11-13T00:29:36.551Z,1016.76
2022-11-13T00:30:36.559Z,1016.71
2022-11-13T00:31:36.517Z,1016.65
2022-11-13T00:32:36.516Z,1016.72
2022-11-13T00:34:05.420Z,1016.72
2022-11-13T00:34:52.799Z,1016.71
2022-11-13T00:35:37.507Z,1016.67
2022-11-13T00:36:36.457Z,1016.71
2022-11-13T00:37:36.475Z,1016.67
2022-11-13T00:38:36.467Z,1016.69
2022-11-13T00:39:36.424Z,1016.63
2022-11-13T00:40:36.420Z,1016.66
2022-11-13T00:41:36.449Z,1016.67
2022-11-13T00:42:36.505Z,1016.64
2022-11-13T00:43:36.394Z,1016.67
2022-11-13T00:44:36.403Z,1016.69
2022-11-13T00:45:36.358Z,1016.68
2022-11-13T00:46:36.365Z,1016.66
2022-11-13T00:47:36.430Z,1016.59
2022-11-13T00:48:36.326Z,1016.58
2022-11-13T00:49:36.330Z,1016.61
2022-11-13T00:50:36.307Z,1016.65
2022-11-13T00:51:36.296Z,1016.66
2022-11-13T00:52:36.339Z,1016.60
2022-11-13T00:53:36.272Z,1016.60
2022-11-13T00:54:36.353Z,1016.61
2022-11-13T00:55:36.269Z,1016.59
2022-11-13T00:56:36.241Z,1016.60
2022-11-13T00:57:36.254Z,1016.60
2022-11-13T00:58:36.333Z,1016.53
2022-11-13T00:59:36.243Z,1016.58
2022-11-13T01:00:36.201Z,1016.61
2022-11-13T01:01:36.263Z,1016.54
2022-11-13T01:02:36.170Z,1016.57
2022-11-13T01:03:36.245Z,1016.51
2022-11-13T01:04:36.157Z,1016.45
2022-11-13T01:05:36.183Z,1016.50
2022-11-13T01:06:36.187Z,1016.54
2022-11-13T01:07:36.127Z,1016.54
2022-11-13T01:08:36.150Z,1016.45
2022-11-13T01:09:36.129Z,1016.48
2022-11-13T01:10:36.123Z,1016.46
2022-11-13T01:11:36.076Z,1016.44
2022-11-13T01:12:36.075Z,1016.40
2022-11-13T01:13:36.053Z,1016.47
2022-11-13T01:14:36.178Z,1016.45
2022-11-13T01:15:36.054Z,1016.40
2022-11-13T01:16:36.018Z,1016.44
2022-11-13T01:17:36.031Z,1016.44
2022-11-13T01:18:36.025Z,1016.45
2022-11-13T01:19:35.986Z,1016.41
2022-11-13T01:20:35.987Z,1016.47
2022-11-13T01:21:35.964Z,1016.45
2022-11-13T01:22:36.006Z,1016.49
2022-11-13T01:23:35.947Z,1016.51
2022-11-13T01:24:35.938Z,1016.50
2022-11-13T01:25:35.960Z,1016.48
2022-11-13T01:26:35.926Z,1016.50
2022-11-13T01:27:35.901Z,1016.50
2022-11-13T01:28:35.973Z,1016.46
2022-11-13T01:29:35.886Z,1016.54
2022-11-13T01:30:35.989Z,1016.58
2022-11-13T01:31:35.862Z,1016.53
2022-11-13T01:32:35.871Z,1016.58
2022-11-13T01:33:35.842Z,1016.54
2022-11-13T01:34:35.899Z,1016.52
2022-11-13T01:35:35.840Z,1016.52
2022-11-13T01:36:35.826Z,1016.53
2022-11-13T01:37:35.803Z,1016.55
2022-11-13T01:38:37.019Z,1016.52
2022-11-13T01:39:35.776Z,1016.52
2022-11-13T01:40:35.754Z,1016.51
2022-11-13T01:41:35.759Z,1016.48
2022-11-13T01:42:35.761Z,1016.44
2022-11-13T01:43:35.767Z,1016.44
2022-11-13T01:44:35.744Z,1016.46
2022-11-13T01:45:35.699Z,1016.42
2022-11-13T01:46:35.814Z,1016.41
2022-11-13T01:47:35.711Z,1016.38
2022-11-13T01:48:35.665Z,1016.35
2022-11-13T01:49:35.695Z,1016.34
2022-11-13T01:50:35.648Z,1016.31
2022-11-13T01:51:35.708Z,1016.28
2022-11-13T01:52:35.637Z,1016.34
2022-11-13T01:53:35.620Z,1016.34
2022-11-13T01:54:35.633Z,1016.32
2022-11-13T01:55:35.638Z,1016.43
2022-11-13T01:56:35.584Z,1016.38
2022-11-13T01:57:35.581Z,1016.32
2022-11-13T01:58:36.040Z,1016.27
2022-11-13T01:59:35.555Z,1016.30
2022-11-13T02:00:35.565Z,1016.27
2022-11-13T02:01:35.555Z,1016.20
2022-11-13T02:02:35.639Z,1016.21
2022-11-13T02:03:35.541Z,1016.25
2022-11-13T02:04:35.499Z,1016.20
2022-11-13T02:05:35.511Z,1016.20
2022-11-13T02:06:35.518Z,1016.17
2022-11-13T02:07:35.465Z,1016.14
2022-11-13T02:08:35.483Z,1016.15
2022-11-13T02:09:35.484Z,1016.13
2022-11-13T02:10:35.437Z,1016.06
2022-11-13T02:11:35.460Z,1016.15
2022-11-13T02:12:35.406Z,1016.11
2022-11-13T02:13:35.415Z,1016.02
2022-11-13T02:14:35.404Z,1016.01
2022-11-13T02:15:35.400Z,1016.01
2022-11-13T02:16:35.383Z,1016.03
2022-11-13T02:17:35.392Z,1016.07
2022-11-13T02:18:35.454Z,1016.03
2022-11-13T02:19:35.332Z,1016.08
2022-11-13T02:20:35.352Z,1016.04
2022-11-13T02:21:35.321Z,1016.04
2022-11-13T02:22:35.338Z,1016.02
2022-11-13T02:23:35.318Z,1015.99
2022-11-13T02:24:37.817Z,1016.05
2022-11-13T02:25:35.318Z,1016.05
2022-11-13T02:26:35.284Z,1016.05
2022-11-13T02:27:35.252Z,1016.06
2022-11-13T02:28:35.243Z,1016.06
2022-11-13T02:29:35.253Z,1016.09
2022-11-13T02:30:35.215Z,1016.13
2022-11-13T02:31:35.270Z,1016.12
2022-11-13T02:32:35.198Z,1016.08
2022-11-13T02:33:35.181Z,1016.10
2022-11-13T02:34:35.304Z,1016.08
2022-11-13T02:35:35.202Z,1016.10
2022-11-13T02:36:35.148Z,1016.10
2022-11-13T02:37:35.161Z,1016.10
2022-11-13T02:38:35.123Z,1016.08
2022-11-13T02:39:35.126Z,1016.15
2022-11-13T02:40:35.133Z,1016.16
2022-11-13T02:41:35.100Z,1016.15
2022-11-13T02:42:35.083Z,1016.19
2022-11-13T02:43:35.095Z,1016.22
2022-11-13T02:44:35.058Z,1016.16
2022-11-13T02:45:35.058Z,1016.15
2022-11-13T02:46:35.074Z,1016.22
2022-11-13T02:47:35.023Z,1016.20
2022-11-13T02:48:35.012Z,1016.18
2022-11-13T02:49:35.039Z,1016.15
2022-11-13T02:50:35.139Z,1016.16
2022-11-13T02:51:34.994Z,1016.12
2022-11-13T02:52:35.018Z,1016.06
2022-11-13T02:53:34.962Z,1016.13
2022-11-13T02:54:34.972Z,1016.12
2022-11-13T02:55:34.961Z,1016.09
2022-11-13T02:56:34.940Z,1016.07
2022-11-13T02:57:34.926Z,1016.02
2022-11-13T02:58:34.903Z,1016.03
2022-11-13T02:59:34.899Z,1016.02
2022-11-13T03:00:34.949Z,1016.05
2022-11-13T03:01:35.023Z,1016.03
2022-11-13T03:02:34.870Z,1016.00
2022-11-13T03:03:57.829Z,1015.98
2022-11-13T03:05:05.395Z,1016.01
2022-11-13T03:05:34.832Z,1016.01
2022-11-13T03:06:34.934Z,1015.99
2022-11-13T03:07:34.841Z,1016.02
2022-11-13T03:08:35.954Z,1015.97
2022-11-13T03:09:34.818Z,1015.97
2022-11-13T03:10:34.775Z,1015.97
2022-11-13T03:11:34.763Z,1015.93
2022-11-13T03:12:34.783Z,1015.99
2022-11-13T03:13:34.742Z,1015.93
2022-11-13T03:14:34.735Z,1015.89
2022-11-13T03:15:34.741Z,1015.96
2022-11-13T03:16:34.790Z,1015.91
2022-11-13T03:17:34.765Z,1015.91
2022-11-13T03:18:34.707Z,1016.00
2022-11-13T03:19:34.674Z,1015.97
2022-11-13T03:20:34.706Z,1015.94
2022-11-13T03:21:34.683Z,1015.97
2022-11-13T03:22:34.750Z,1015.96
2022-11-13T03:23:34.656Z,1015.90
2022-11-13T03:24:34.621Z,1015.93
2022-11-13T03:25:34.610Z,1015.90
2022-11-13T03:26:34.642Z,1015.86
2022-11-13T03:27:34.588Z,1015.93
2022-11-13T03:28:34.575Z,1015.94
2022-11-13T03:29:34.574Z,1015.91
2022-11-13T03:30:34.584Z,1015.94
2022-11-13T03:31:34.547Z,1015.91
2022-11-13T03:32:34.555Z,1015.87
2022-11-13T03:33:34.521Z,1015.82
2022-11-13T03:34:34.513Z,1015.80
2022-11-13T03:35:41.822Z,1015.90
2022-11-13T03:36:34.491Z,1015.81
2022-11-13T03:37:34.510Z,1015.86
2022-11-13T03:38:34.576Z,1015.85
2022-11-13T03:39:34.513Z,1015.80
2022-11-13T03:40:34.448Z,1015.76
2022-11-13T03:41:34.436Z,1015.79
2022-11-13T03:42:34.481Z,1015.78
2022-11-13T03:43:34.417Z,1015.81
2022-11-13T03:44:34.431Z,1015.79
2022-11-13T03:45:34.419Z,1015.81
2022-11-13T03:46:34.377Z,1015.87
2022-11-13T03:47:34.397Z,1015.78
2022-11-13T03:48:34.355Z,1015.79
2022-11-13T03:49:34.352Z,1015.76
2022-11-13T03:50:35.281Z,1015.80
2022-11-13T03:51:34.325Z,1015.78
2022-11-13T03:52:34.366Z,1015.72
2022-11-13T03:53:34.322Z,1015.75
2022-11-13T03:54:34.440Z,1015.76
2022-11-13T03:55:34.293Z,1015.71
2022-11-13T03:56:34.289Z,1015.67
2022-11-13T03:57:34.261Z,1015.76
2022-11-13T03:58:37.366Z,1015.68
2022-11-13T03:59:34.263Z,1015.66
2022-11-13T04:00:34.227Z,1015.73
2022-11-13T04:01:34.269Z,1015.60
2022-11-13T04:02:34.204Z,1015.66
2022-11-13T04:03:34.198Z,1015.71
2022-11-13T04:04:34.251Z,1015.66
2022-11-13T04:05:34.195Z,1015.64
2022-11-13T04:06:34.158Z,1015.70
2022-11-13T04:07:34.174Z,1015.65
2022-11-13T04:08:34.136Z,1015.61
2022-11-13T04:09:34.173Z,1015.58
2022-11-13T04:10:34.230Z,1015.56
2022-11-13T04:11:34.134Z,1015.58
2022-11-13T04:12:34.122Z,1015.58
2022-11-13T04:13:34.115Z,1015.58
2022-11-13T04:14:34.074Z,1015.56
2022-11-13T04:15:34.101Z,1015.57
2022-11-13T04:16:34.075Z,1015.55
2022-11-13T04:17:34.035Z,1015.55
2022-11-13T04:18:34.033Z,1015.56
2022-11-13T04:19:34.055Z,1015.55
2022-11-13T04:20:34.007Z,1015.58
2022-11-13T04:21:34.043Z,1015.58
2022-11-13T04:22:34.012Z,1015.53
2022-11-13T04:23:33.969Z,1015.51
2022-11-13T04:24:33.972Z,1015.58
2022-11-13T04:25:33.965Z,1015.63
2022-11-13T04:26:34.048Z,1015.62
2022-11-13T04:27:33.952Z,1015.63
2022-11-13T04:28:33.918Z,1015.55
2022-11-13T04:29:33.919Z,1015.55
2022-11-13T04:30:33.905Z,1015.50
2022-11-13T04:31:33.961Z,1015.48
2022-11-13T04:32:33.869Z,1015.48
2022-11-13T04:33:33.862Z,1015.52
2022-11-13T04:34:33.849Z,1015.49
2022-11-13T04:35:33.838Z,1015.46
2022-11-13T04:36:33.853Z,1015.44
2022-11-13T04:37:33.840Z,1015.42
2022-11-13T04:38:33.832Z,1015.41
2022-11-13T04:39:33.798Z,1015.39
2022-11-13T04:40:33.783Z,1015.41
2022-11-13T04:41:33.809Z,1015.40
2022-11-13T04:42:33.871Z,1015.43
2022-11-13T04:43:33.788Z,1015.46
2022-11-13T04:44:33.741Z,1015.44
2022-11-13T04:45:33.767Z,1015.48
2022-11-13T04:46:33.722Z,1015.43
2022-11-13T04:47:33.726Z,1015.43
2022-11-13T04:48:33.714Z,1015.40
2022-11-13T04:49:33.727Z,1015.41
2022-11-13T04:50:33.675Z,1015.46
2022-11-13T04:51:33.696Z,1015.42
2022-11-13T04:52:33.687Z,1015.45
2022-11-13T04:53:33.636Z,1015.47
2022-11-13T04:54:33.626Z,1015.44
2022-11-13T04:55:33.613Z,1015.48
2022-11-13T04:56:33.606Z,1015.44
2022-11-13T04:57:33.615Z,1015.37
2022-11-13T04:58:33.735Z,1015.31
2022-11-13T04:59:33.598Z,1015.34
2022-11-13T05:00:33.604Z,1015.29
2022-11-13T05:01:33.577Z,1015.30
2022-11-13T05:02:33.540Z,1015.27
2022-11-13T05:03:33.529Z,1015.28
2022-11-13T05:04:33.587Z,1015.35
2022-11-13T05:05:33.523Z,1015.31
2022-11-13T05:06:33.498Z,1015.35
2022-11-13T05:07:33.505Z,1015.33
2022-11-13T05:08:33.491Z,1015.32
2022-11-13T05:09:33.500Z,1015.30
2022-11-13T05:10:33.488Z,1015.30
2022-11-13T05:11:33.464Z,1015.31
2022-11-13T05:12:33.456Z,1015.27
2022-11-13T05:13:33.425Z,1015.32
2022-11-13T05:14:33.549Z,1015.32
2022-11-13T05:15:33.433Z,1015.29
2022-11-13T05:16:33.394Z,1015.25
2022-11-13T05:17:33.386Z,1015.25
2022-11-13T05:18:33.369Z,1015.31
2022-11-13T05:19:33.370Z,1015.22
2022-11-13T05:20:33.403Z,1015.23
2022-11-13T05:21:33.381Z,1015.27
2022-11-13T05:22:33.328Z,1015.26
2022-11-13T05:23:33.334Z,1015.24
2022-11-13T05:24:33.300Z,1015.27
2022-11-13T05:25:33.281Z,1015.32
2022-11-13T05:26:33.279Z,1015.27
2022-11-13T05:27:33.354Z,1015.25
2022-11-13T05:28:33.254Z,1015.34
2022-11-13T05:29:33.239Z,1015.33
2022-11-13T05:30:33.356Z,1015.36
2022-11-13T05:31:33.251Z,1015.35
2022-11-13T05:32:33.257Z,1015.34
2022-11-13T05:33:33.202Z,1015.36
2022-11-13T05:34:33.208Z,1015.42
2022-11-13T05:35:33.200Z,1015.38
2022-11-13T05:36:33.173Z,1015.42
2022-11-13T05:37:33.165Z,1015.41
2022-11-13T05:38:33.199Z,1015.37
2022-11-13T05:39:33.135Z,1015.38
2022-11-13T05:40:33.127Z,1015.30
2022-11-13T05:41:33.107Z,1015.34
2022-11-13T05:42:33.141Z,1015.41
2022-11-13T05:43:33.092Z,1015.45
2022-11-13T05:44:33.101Z,1015.39
2022-11-13T05:45:33.059Z,1015.36
2022-11-13T05:46:33.196Z,1015.34
2022-11-13T05:47:33.046Z,1015.41
2022-11-13T05:48:33.023Z,1015.30
2022-11-13T05:49:33.033Z,1015.36
2022-11-13T05:50:33.037Z,1015.28
2022-11-13T05:51:32.997Z,1015.33
2022-11-13T05:52:33.016Z,1015.39
2022-11-13T05:53:32.994Z,1015.36
2022-11-13T05:54:32.996Z,1015.38
2022-11-13T05:55:32.958Z,1015.34
2022-11-13T05:56:32.941Z,1015.33
2022-11-13T05:57:32.956Z,1015.40
2022-11-13T05:58:32.924Z,1015.36
2022-11-13T05:59:32.901Z,1015.37
2022-11-13T06:00:32.918Z,1015.36
2022-11-13T06:01:32.973Z,1015.34
2022-11-13T06:02:33.006Z,1015.32
2022-11-13T06:03:32.880Z,1015.37
2022-11-13T06:04:32.880Z,1015.28
2022-11-13T06:05:32.882Z,1015.33
2022-11-13T06:06:32.861Z,1015.32
2022-11-13T06:07:32.818Z,1015.28
2022-11-13T06:08:32.829Z,1015.36
2022-11-13T06:09:32.831Z,1015.37
2022-11-13T06:10:32.822Z,1015.35
2022-11-13T06:11:32.799Z,1015.38
2022-11-13T06:12:32.773Z,1015.41
2022-11-13T06:13:32.800Z,1015.32
2022-11-13T06:14:32.772Z,1015.28
2022-11-13T06:15:32.751Z,1015.35
2022-11-13T06:16:32.762Z,1015.33
2022-11-13T06:17:32.760Z,1015.37
2022-11-13T06:18:33.569Z,1015.32
2022-11-13T06:19:32.704Z,1015.38
2022-11-13T06:20:32.686Z,1015.31
2022-11-13T06:21:32.667Z,1015.35
2022-11-13T06:22:32.699Z,1015.40
2022-11-13T06:23:32.644Z,1015.35
2022-11-13T06:24:32.647Z,1015.32
2022-11-13T06:25:32.655Z,1015.32
2022-11-13T06:26:32.614Z,1015.31
2022-11-13T06:27:32.622Z,1015.30
2022-11-13T06:28:32.632Z,1015.32
2022-11-13T06:29:32.582Z,1015.34
2022-11-13T06:30:32.576Z,1015.32
2022-11-13T06:31:32.594Z,1015.39
2022-11-13T06:32:32.553Z,1015.37
2022-11-13T06:33:32.570Z,1015.41
2022-11-13T06:34:32.638Z,1015.44
2022-11-13T06:35:32.515Z,1015.35
2022-11-13T06:36:32.503Z,1015.42
2022-11-13T06:37:34.741Z,1015.40
2022-11-13T06:38:32.681Z,1015.38
2022-11-13T06:39:32.474Z,1015.31
2022-11-13T06:40:32.458Z,1015.31
2022-11-13T06:41:32.467Z,1015.35
2022-11-13T06:42:32.436Z,1015.32
2022-11-13T06:43:32.460Z,1015.27
2022-11-13T06:44:32.439Z,1015.31
2022-11-13T06:45:32.403Z,1015.31
2022-11-13T06:46:32.421Z,1015.30
2022-11-13T06:47:32.400Z,1015.29
2022-11-13T06:48:32.371Z,1015.28
2022-11-13T06:49:32.405Z,1015.30
2022-11-13T06:50:32.468Z,1015.25
2022-11-13T06:51:32.386Z,1015.20
2022-11-13T06:52:32.331Z,1015.18
2022-11-13T06:53:32.328Z,1015.23
2022-11-13T06:54:32.306Z,1015.18
2022-11-13T06:55:32.334Z,1015.20
2022-11-13T06:56:32.326Z,1015.19
2022-11-13T06:57:32.274Z,1015.22
2022-11-13T06:58:32.402Z,1015.16
2022-11-13T06:59:32.253Z,1015.10
2022-11-13T07:00:36.545Z,1015.11
2022-11-13T07:01:32.292Z,1015.01
2022-11-13T07:02:32.251Z,1015.10
2022-11-13T07:03:32.208Z,1015.02
2022-11-13T07:04:32.236Z,1015.01
2022-11-13T07:05:32.183Z,1014.96
2022-11-13T07:06:36.153Z,1014.93
2022-11-13T07:07:33.203Z,1014.95
2022-11-13T07:08:32.298Z,1014.97
2022-11-13T07:09:32.142Z,1014.95
2022-11-13T07:10:32.150Z,1014.94
2022-11-13T07:11:32.117Z,1014.97
2022-11-13T07:12:32.112Z,1014.99
2022-11-13T07:13:32.143Z,1014.92
2022-11-13T07:14:32.130Z,1014.86
2022-11-13T07:15:32.102Z,1014.95
2022-11-13T07:16:56.166Z,1014.86
2022-11-13T07:17:32.056Z,1014.90
2022-11-13T07:18:32.063Z,1014.85
2022-11-13T07:19:32.083Z,1014.84
2022-11-13T07:20:32.020Z,1014.84
2022-11-13T07:21:32.029Z,1014.79
2022-11-13T07:22:32.137Z,1014.85
2022-11-13T07:23:31.989Z,1014.82
2022-11-13T07:24:31.989Z,1014.78
2022-11-13T07:25:31.994Z,1014.81
2022-11-13T07:26:31.958Z,1014.80
2022-11-13T07:27:31.942Z,1014.81
2022-11-13T07:28:32.027Z,1014.85
2022-11-13T07:29:31.922Z,1014.88
2022-11-13T07:30:31.933Z,1014.92
2022-11-13T07:31:31.948Z,1014.85
2022-11-13T07:32:31.888Z,1014.93
2022-11-13T07:33:31.879Z,1014.96
2022-11-13T07:34:31.944Z,1014.95
2022-11-13T07:35:31.884Z,1014.94
2022-11-13T07:36:31.873Z,1014.95
2022-11-13T07:37:31.833Z,1014.96
2022-11-13T07:38:32.126Z,1014.93
2022-11-13T07:39:31.816Z,1014.94
2022-11-13T07:40:31.804Z,1014.95
2022-11-13T07:41:31.795Z,1014.91
2022-11-13T07:42:31.832Z,1014.93
2022-11-13T07:43:31.770Z,1014.88
2022-11-13T07:44:53.359Z,1014.86
2022-11-13T07:45:32.768Z,1014.93
2022-11-13T07:46:31.735Z,1014.93
2022-11-13T07:47:31.747Z,1014.90
2022-11-13T07:48:32.218Z,1014.92
2022-11-13T07:49:31.700Z,1014.92
2022-11-13T07:50:31.721Z,1014.88
2022-11-13T07:51:31.689Z,1014.91
2022-11-13T07:52:31.672Z,1014.85
2022-11-13T07:53:31.667Z,1014.82
2022-11-13T07:54:31.787Z,1014.93
2022-11-13T07:55:31.680Z,1014.91
2022-11-13T07:56:31.624Z,1014.81
2022-11-13T07:57:31.637Z,1014.79
2022-11-13T07:58:31.902Z,1014.83
2022-11-13T07:59:31.631Z,1014.81
2022-11-13T08:00:31.583Z,1014.84
2022-11-13T08:01:31.658Z,1014.82
2022-11-13T08:02:31.558Z,1014.85
2022-11-13T08:03:31.578Z,1014.86
2022-11-13T08:04:31.536Z,1014.83
2022-11-13T08:05:31.536Z,1014.85
2022-11-13T08:06:31.550Z,1014.81
2022-11-13T08:07:31.554Z,1014.75
2022-11-13T08:08:31.935Z,1014.80
2022-11-13T08:09:31.499Z,1014.83
2022-11-13T08:10:31.589Z,1014.84
2022-11-13T08:11:31.468Z,1014.76
2022-11-13T08:12:31.448Z,1014.79
2022-11-13T08:13:31.468Z,1014.81
2022-11-13T08:14:31.442Z,1014.84
2022-11-13T08:15:31.416Z,1014.84
2022-11-13T08:16:31.412Z,1014.81
2022-11-13T08:17:31.419Z,1014.80
2022-11-13T08:18:31.645Z,1014.83
2022-11-13T08:19:31.453Z,1014.86
2022-11-13T08:20:31.362Z,1014.87
2022-11-13T08:21:31.346Z,1014.83
2022-11-13T08:22:31.362Z,1014.86
2022-11-13T08:23:31.341Z,1014.84
2022-11-13T08:24:31.315Z,1014.76
2022-11-13T08:25:31.380Z,1014.82
2022-11-13T08:26:31.446Z,1014.84
2022-11-13T08:27:31.281Z,1014.89
2022-11-13T08:28:31.476Z,1014.86
2022-11-13T08:29:31.254Z,1014.89
2022-11-13T08:30:31.244Z,1014.95
2022-11-13T08:31:31.243Z,1014.87
2022-11-13T08:32:31.299Z,1014.97
2022-11-13T08:33:31.217Z,1014.98
2022-11-13T08:34:31.209Z,1014.94
2022-11-13T08:35:31.191Z,1014.89
2022-11-13T08:36:31.179Z,1014.98
2022-11-13T08:37:31.193Z,1014.92
2022-11-13T08:38:31.454Z,1014.96
2022-11-13T08:39:31.161Z,1015.02
2022-11-13T08:40:31.159Z,1015.04
2022-11-13T08:41:31.169Z,1014.99
2022-11-13T08:42:31.267Z,1014.96
2022-11-13T08:43:31.130Z,1014.90
2022-11-13T08:44:31.088Z,1014.92
2022-11-13T08:45:31.155Z,1014.94
2022-11-13T08:46:31.066Z,1014.93
2022-11-13T08:47:31.052Z,1014.86
2022-11-13T08:48:31.474Z,1014.96
2022-11-13T08:49:31.032Z,1014.97
2022-11-13T08:50:31.125Z,1015.02
2022-11-13T08:51:31.061Z,1014.95
2022-11-13T08:52:30.999Z,1014.94
2022-11-13T08:53:31.098Z,1014.99
2022-11-13T08:54:30.984Z,1014.91
2022-11-13T08:55:30.974Z,1014.92
2022-11-13T08:56:30.960Z,1014.99
2022-11-13T08:57:30.953Z,1014.90
2022-11-13T08:58:31.617Z,1014.90
2022-11-13T08:59:30.968Z,1014.84
2022-11-13T09:00:30.938Z,1014.88
2022-11-13T09:01:30.903Z,1014.83
2022-11-13T09:02:30.928Z,1014.84
2022-11-13T09:03:30.920Z,1014.78
2022-11-13T09:04:30.885Z,1014.80
2022-11-13T09:05:30.909Z,1014.83
2022-11-13T09:06:30.841Z,1014.81
2022-11-13T09:07:30.941Z,1014.80
2022-11-13T09:08:31.184Z,1014.78
2022-11-13T09:09:30.848Z,1014.72
2022-11-13T09:10:30.896Z,1014.79
2022-11-13T09:11:30.810Z,1014.71
2022-11-13T09:12:30.775Z,1014.75
2022-11-13T09:13:30.778Z,1014.70
2022-11-13T09:14:30.887Z,1014.69
2022-11-13T09:15:30.786Z,1014.67
2022-11-13T09:16:30.774Z,1014.69
2022-11-13T09:17:30.745Z,1014.75
2022-11-13T09:18:31.293Z,1014.74
2022-11-13T09:19:30.727Z,1014.75
2022-11-13T09:20:30.697Z,1014.76
2022-11-13T09:21:30.677Z,1014.77
2022-11-13T09:22:30.674Z,1014.73
2022-11-13T09:23:30.724Z,1014.69
2022-11-13T09:24:30.640Z,1014.67
2022-11-13T09:25:36.831Z,1014.65
2022-11-13T09:26:30.651Z,1014.69
2022-11-13T09:27:30.617Z,1014.69
2022-11-13T09:28:31.115Z,1014.71
2022-11-13T09:29:30.627Z,1014.62
2022-11-13T09:30:30.688Z,1014.65
2022-11-13T09:31:30.579Z,1014.65
2022-11-13T09:32:30.586Z,1014.65
2022-11-13T09:33:30.561Z,1014.66
2022-11-13T09:34:30.570Z,1014.54
2022-11-13T09:35:30.642Z,1014.59
2022-11-13T09:36:30.510Z,1014.51
2022-11-13T09:37:30.516Z,1014.45
2022-11-13T09:38:30.825Z,1014.46
2022-11-13T09:39:30.477Z,1014.52
2022-11-13T09:40:30.474Z,1014.54
2022-11-13T09:41:30.482Z,1014.46
2022-11-13T09:42:30.452Z,1014.49
2022-11-13T09:43:30.461Z,1014.49
2022-11-13T09:44:30.431Z,1014.53
2022-11-13T09:45:30.411Z,1014.46
2022-11-13T09:46:30.510Z,1014.54
2022-11-13T09:47:30.419Z,1014.52
2022-11-13T09:48:30.711Z,1014.52
2022-11-13T09:49:30.395Z,1014.47
2022-11-13T09:50:30.367Z,1014.51
2022-11-13T09:51:30.343Z,1014.44
2022-11-13T09:52:30.509Z,1014.46
2022-11-13T09:53:30.331Z,1014.49
2022-11-13T09:54:30.327Z,1014.47
2022-11-13T09:55:30.361Z,1014.52
2022-11-13T09:56:30.351Z,1014.52
2022-11-13T09:57:30.316Z,1014.58
2022-11-13T09:58:30.727Z,1014.52
2022-11-13T09:59:30.266Z,1014.53
2022-11-13T10:00:30.268Z,1014.57
2022-11-13T10:01:30.357Z,1014.53
2022-11-13T10:02:30.336Z,1014.57
2022-11-13T10:03:59.337Z,1014.57
2022-11-13T10:04:31.209Z,1014.57
2022-11-13T10:05:30.195Z,1014.51
2022-11-13T10:06:30.188Z,1014.49
2022-11-13T10:07:30.207Z,1014.49
2022-11-13T10:08:30.588Z,1014.44
2022-11-13T10:09:30.153Z,1014.48
2022-11-13T10:10:30.177Z,1014.52
2022-11-13T10:11:30.138Z,1014.46
2022-11-13T10:12:30.140Z,1014.44
2022-11-13T10:13:30.142Z,1014.53
2022-11-13T10:14:30.087Z,1014.53
2022-11-13T10:15:30.088Z,1014.47
2022-11-13T10:16:30.175Z,1014.45
2022-11-13T10:17:30.105Z,1014.47
2022-11-13T10:18:30.484Z,1014.42
2022-11-13T10:19:30.036Z,1014.31
2022-11-13T10:20:30.029Z,1014.30
2022-11-13T10:21:30.026Z,1014.33
2022-11-13T10:22:34.408Z,1014.32
2022-11-13T10:23:30.436Z,1014.30
2022-11-13T10:24:30.016Z,1014.27
2022-11-13T10:25:30.031Z,1014.28
2022-11-13T10:26:29.958Z,1014.32
2022-11-13T10:27:30.027Z,1014.30
2022-11-13T10:29:29.964Z,1014.28
2022-11-13T10:30:29.944Z,1014.33
2022-11-13T10:31:29.925Z,1014.38
2022-11-13T10:32:29.898Z,1014.35
2022-11-13T10:33:30.278Z,1014.36
2022-11-13T10:34:29.987Z,1014.29
2022-11-13T10:35:29.906Z,1014.26
2022-11-13T10:36:29.846Z,1014.23
2022-11-13T10:37:29.894Z,1014.16
2022-11-13T10:38:29.837Z,1014.13
2022-11-13T10:39:29.843Z,1014.05
2022-11-13T10:40:29.816Z,1014.06
2022-11-13T10:41:29.819Z,1014.03
2022-11-13T10:42:29.786Z,1014.06
2022-11-13T10:43:30.102Z,1014.12
2022-11-13T10:44:29.775Z,1014.03
2022-11-13T10:45:29.837Z,1014.05
2022-11-13T10:46:29.767Z,1014.07
2022-11-13T10:48:02.682Z,1014.03
2022-11-13T10:48:31.041Z,1013.99
2022-11-13T10:49:29.706Z,1014.00
2022-11-13T10:50:29.808Z,1014.01
2022-11-13T10:51:29.744Z,1014.01
2022-11-13T10:52:29.692Z,1013.93
2022-11-13T10:53:29.986Z,1013.95
2022-11-13T10:54:29.648Z,1013.95
2022-11-13T10:55:29.716Z,1014.02
2022-11-13T10:56:29.637Z,1013.99
2022-11-13T10:57:29.642Z,1014.05
2022-11-13T10:58:29.898Z,1014.02
2022-11-13T10:59:29.599Z,1013.94
2022-11-13T11:00:29.585Z,1013.97
2022-11-13T11:01:29.668Z,1013.95
2022-11-13T11:02:29.562Z,1013.91
2022-11-13T11:03:29.628Z,1013.83
2022-11-13T11:04:29.563Z,1013.88
2022-11-13T11:05:29.545Z,1013.81
2022-11-13T11:06:56.350Z,1013.76
2022-11-13T11:07:30.554Z,1013.71
2022-11-13T11:08:29.832Z,1013.85
2022-11-13T11:09:29.560Z,1013.80
2022-11-13T11:10:29.495Z,1013.72
2022-11-13T11:11:29.466Z,1013.70
2022-11-13T11:12:31.356Z,1013.68
2022-11-13T11:13:29.462Z,1013.68
2022-11-13T11:14:29.431Z,1013.62
2022-11-13T11:15:29.504Z,1013.66
2022-11-13T11:16:29.445Z,1013.62
2022-11-13T11:17:29.396Z,1013.61
2022-11-13T11:18:29.716Z,1013.53
2022-11-13T11:19:29.403Z,1013.62
2022-11-13T11:20:29.368Z,1013.63
2022-11-13T11:21:29.375Z,1013.53
2022-11-13T11:22:29.494Z,1013.46
2022-11-13T11:23:29.390Z,1013.51
2022-11-13T11:24:29.325Z,1013.45
2022-11-13T11:25:29.311Z,1013.43
2022-11-13T11:26:29.308Z,1013.50
2022-11-13T11:27:29.308Z,1013.44
2022-11-13T11:28:29.678Z,1013.41
2022-11-13T11:29:29.266Z,1013.42
2022-11-13T11:30:29.289Z,1013.39
2022-11-13T11:31:29.249Z,1013.28
2022-11-13T11:32:29.241Z,1013.24
2022-11-13T11:33:29.228Z,1013.24
2022-11-13T11:34:29.298Z,1013.20
2022-11-13T11:35:29.263Z,1013.21
2022-11-13T11:36:29.193Z,1013.23
2022-11-13T11:37:29.216Z,1013.19
2022-11-13T11:38:29.653Z,1013.17
2022-11-13T11:39:29.207Z,1013.21
2022-11-13T11:40:29.150Z,1013.19
2022-11-13T11:41:29.143Z,1013.17
2022-11-13T11:42:29.204Z,1013.19
2022-11-13T11:43:29.142Z,1013.17
2022-11-13T11:44:29.131Z,1013.14
2022-11-13T11:45:29.112Z,1013.10
2022-11-13T11:46:29.111Z,1013.11
2022-11-13T11:47:29.096Z,1013.09
2022-11-13T11:48:29.274Z,1013.06
2022-11-13T11:49:29.080Z,1013.02
2022-11-13T11:50:29.066Z,1013.08
2022-11-13T11:51:29.039Z,1013.04
2022-11-13T11:52:29.092Z,1013.07
2022-11-13T11:53:29.005Z,1013.09
2022-11-13T11:54:29.109Z,1013.14
2022-11-13T11:55:28.991Z,1013.15
2022-11-13T11:56:29.003Z,1013.17
2022-11-13T11:57:29.011Z,1013.17
2022-11-13T11:58:29.427Z,1013.15
2022-11-13T11:59:28.999Z,1013.09
2022-11-13T12:00:29.053Z,1013.10
2022-11-13T12:01:28.938Z,1013.11
2022-11-13T12:02:28.918Z,1013.11
2022-11-13T12:03:28.928Z,1013.07
2022-11-13T12:04:28.925Z,1013.12
2022-11-13T12:05:28.998Z,1013.11
2022-11-13T12:06:28.918Z,1013.07